sensor_id;sensor_type;location;lat;lon;timestamp;P1;durP1;ratioP1;P2;durP2;ratioP2
61108;SDS011;46995;55.740;37.402;2023-02-07T00:00:41;10.57;;;5.60;;
61108;SDS011;46995;55.740;37.402;2023-02-07T00:03:07;14.30;;;6.30;;
61108;SDS011;46995;55.740;37.402;2023-02-07T00:05:33;10.57;;;5.72;;
61108;SDS011;46995;55.740;37.402;2023-02-07T00:08:02;13.93;;;6.78;;
61108;SDS011;46995;55.740;37.402;2023-02-07T00:10:29;10.88;;;6.65;;
61108;SDS011;46995;55.740;37.402;2023-02-07T00:12:54;11.00;;;6.28;;
61108;SDS011;46995;55.740;37.402;2023-02-07T00:15:20;12.30;;;6.72;;
61108;SDS011;46995;55.740;37.402;2023-02-07T00:17:46;14.90;;;7.35;;
61108;SDS011;46995;55.740;37.402;2023-02-07T00:20:12;11.15;;;6.43;;
61108;SDS011;46995;55.740;37.402;2023-02-07T00:22:37;13.13;;;7.30;;
61108;SDS011;46995;55.740;37.402;2023-02-07T00:25:03;13.25;;;6.97;;
61108;SDS011;46995;55.740;37.402;2023-02-07T00:27:30;12.68;;;6.95;;
61108;SDS011;46995;55.740;37.402;2023-02-07T00:29:55;12.95;;;7.03;;
61108;SDS011;46995;55.740;37.402;2023-02-07T00:32:21;13.57;;;7.55;;
61108;SDS011;46995;55.740;37.402;2023-02-07T00:34:47;11.73;;;6.38;;
61108;SDS011;46995;55.740;37.402;2023-02-07T00:37:15;11.93;;;6.53;;
61108;SDS011;46995;55.740;37.402;2023-02-07T00:39:41;14.63;;;7.70;;
61108;SDS011;46995;55.740;37.402;2023-02-07T00:42:07;18.48;;;7.68;;
61108;SDS011;46995;55.740;37.402;2023-02-07T00:44:33;15.18;;;7.05;;
61108;SDS011;46995;55.740;37.402;2023-02-07T00:46:58;12.77;;;7.25;;
61108;SDS011;46995;55.740;37.402;2023-02-07T00:49:24;11.90;;;6.53;;
61108;SDS011;46995;55.740;37.402;2023-02-07T00:51:50;12.82;;;7.07;;
61108;SDS011;46995;55.740;37.402;2023-02-07T00:54:16;11.48;;;6.85;;
61108;SDS011;46995;55.740;37.402;2023-02-07T00:56:42;12.93;;;7.35;;
61108;SDS011;46995;55.740;37.402;2023-02-07T00:59:08;13.40;;;6.97;;
61108;SDS011;46995;55.740;37.402;2023-02-07T01:01:34;12.70;;;6.93;;
61108;SDS011;46995;55.740;37.402;2023-02-07T01:04:00;11.15;;;6.32;;
61108;SDS011;46995;55.740;37.402;2023-02-07T01:06:26;14.68;;;8.15;;
61108;SDS011;46995;55.740;37.402;2023-02-07T01:08:55;12.52;;;7.10;;
61108;SDS011;46995;55.740;37.402;2023-02-07T01:11:27;11.00;;;6.82;;
61108;SDS011;46995;55.740;37.402;2023-02-07T01:13:53;16.42;;;7.53;;
61108;SDS011;46995;55.740;37.402;2023-02-07T01:16:25;12.93;;;7.22;;
61108;SDS011;46995;55.740;37.402;2023-02-07T01:18:57;18.40;;;7.90;;
61108;SDS011;46995;55.740;37.402;2023-02-07T01:21:27;16.77;;;6.55;;
61108;SDS011;46995;55.740;37.402;2023-02-07T01:23:52;14.23;;;7.25;;
61108;SDS011;46995;55.740;37.402;2023-02-07T01:26:22;12.95;;;7.65;;
61108;SDS011;46995;55.740;37.402;2023-02-07T01:28:50;16.52;;;7.90;;
61108;SDS011;46995;55.740;37.402;2023-02-07T01:31:17;15.15;;;6.93;;
61108;SDS011;46995;55.740;37.402;2023-02-07T01:33:43;10.88;;;7.07;;
61108;SDS011;46995;55.740;37.402;2023-02-07T01:36:10;12.43;;;6.95;;
61108;SDS011;46995;55.740;37.402;2023-02-07T01:38:38;13.82;;;7.15;;
61108;SDS011;46995;55.740;37.402;2023-02-07T01:41:05;10.48;;;6.10;;
61108;SDS011;46995;55.740;37.402;2023-02-07T01:43:31;12.77;;;7.00;;
61108;SDS011;46995;55.740;37.402;2023-02-07T01:45:57;11.00;;;6.28;;
61108;SDS011;46995;55.740;37.402;2023-02-07T01:48:24;12.05;;;7.00;;
61108;SDS011;46995;55.740;37.402;2023-02-07T01:50:56;11.55;;;6.97;;
61108;SDS011;46995;55.740;37.402;2023-02-07T01:53:25;15.27;;;7.10;;
61108;SDS011;46995;55.740;37.402;2023-02-07T01:55:54;11.20;;;7.03;;
61108;SDS011;46995;55.740;37.402;2023-02-07T01:58:23;12.50;;;7.32;;
61108;SDS011;46995;55.740;37.402;2023-02-07T02:03:18;11.90;;;7.50;;
61108;SDS011;46995;55.740;37.402;2023-02-07T02:05:44;12.05;;;7.15;;
61108;SDS011;46995;55.740;37.402;2023-02-07T02:08:13;12.90;;;6.50;;
61108;SDS011;46995;55.740;37.402;2023-02-07T02:13:29;12.00;;;6.28;;
61108;SDS011;46995;55.740;37.402;2023-02-07T02:21:51;12.52;;;6.72;;
61108;SDS011;46995;55.740;37.402;2023-02-07T02:32:31;11.45;;;6.65;;
61108;SDS011;46995;55.740;37.402;2023-02-07T02:35:20;11.00;;;5.82;;
61108;SDS011;46995;55.740;37.402;2023-02-07T02:41:13;13.50;;;6.18;;
61108;SDS011;46995;55.740;37.402;2023-02-07T02:43:44;15.65;;;6.65;;
61108;SDS011;46995;55.740;37.402;2023-02-07T02:46:30;12.05;;;6.30;;
61108;SDS011;46995;55.740;37.402;2023-02-07T02:49:01;10.98;;;6.22;;
61108;SDS011;46995;55.740;37.402;2023-02-07T02:51:30;9.30;;;6.10;;
61108;SDS011;46995;55.740;37.402;2023-02-07T02:53:58;10.70;;;6.32;;
61108;SDS011;46995;55.740;37.402;2023-02-07T03:04:48;11.32;;;6.15;;
61108;SDS011;46995;55.740;37.402;2023-02-07T03:16:19;10.43;;;5.90;;
61108;SDS011;46995;55.740;37.402;2023-02-07T03:19:08;12.65;;;6.97;;
61108;SDS011;46995;55.740;37.402;2023-02-07T03:24:17;11.32;;;7.18;;
61108;SDS011;46995;55.740;37.402;2023-02-07T03:26:46;13.68;;;7.03;;
61108;SDS011;46995;55.740;37.402;2023-02-07T03:29:15;11.15;;;6.03;;
61108;SDS011;46995;55.740;37.402;2023-02-07T03:31:44;13.32;;;7.00;;
61108;SDS011;46995;55.740;37.402;2023-02-07T03:34:15;11.50;;;6.60;;
61108;SDS011;46995;55.740;37.402;2023-02-07T03:36:45;10.48;;;6.47;;
61108;SDS011;46995;55.740;37.402;2023-02-07T03:39:19;9.98;;;6.20;;
61108;SDS011;46995;55.740;37.402;2023-02-07T03:41:46;15.30;;;7.00;;
61108;SDS011;46995;55.740;37.402;2023-02-07T03:44:18;12.60;;;6.95;;
61108;SDS011;46995;55.740;37.402;2023-02-07T03:46:49;13.18;;;7.13;;
61108;SDS011;46995;55.740;37.402;2023-02-07T03:49:15;13.77;;;7.22;;
61108;SDS011;46995;55.740;37.402;2023-02-07T03:51:45;10.98;;;6.57;;
61108;SDS011;46995;55.740;37.402;2023-02-07T03:54:12;12.82;;;7.07;;
61108;SDS011;46995;55.740;37.402;2023-02-07T03:56:39;13.48;;;7.40;;
61108;SDS011;46995;55.740;37.402;2023-02-07T03:59:06;16.80;;;7.33;;
61108;SDS011;46995;55.740;37.402;2023-02-07T04:01:32;13.88;;;6.95;;
61108;SDS011;46995;55.740;37.402;2023-02-07T04:04:02;15.20;;;7.78;;
61108;SDS011;46995;55.740;37.402;2023-02-07T04:06:28;12.43;;;7.38;;
61108;SDS011;46995;55.740;37.402;2023-02-07T04:08:53;11.82;;;6.95;;
61108;SDS011;46995;55.740;37.402;2023-02-07T04:11:19;14.13;;;6.85;;
61108;SDS011;46995;55.740;37.402;2023-02-07T04:13:45;15.25;;;6.80;;
61108;SDS011;46995;55.740;37.402;2023-02-07T04:16:11;17.05;;;7.95;;
61108;SDS011;46995;55.740;37.402;2023-02-07T04:18:37;14.32;;;7.60;;
61108;SDS011;46995;55.740;37.402;2023-02-07T04:21:03;12.40;;;7.53;;
61108;SDS011;46995;55.740;37.402;2023-02-07T04:23:30;14.55;;;7.70;;
61108;SDS011;46995;55.740;37.402;2023-02-07T04:25:58;13.20;;;6.97;;
61108;SDS011;46995;55.740;37.402;2023-02-07T04:28:25;11.75;;;7.47;;
61108;SDS011;46995;55.740;37.402;2023-02-07T04:30:51;11.63;;;6.95;;
61108;SDS011;46995;55.740;37.402;2023-02-07T04:33:17;16.85;;;7.88;;
61108;SDS011;46995;55.740;37.402;2023-02-07T04:35:44;12.35;;;6.70;;
61108;SDS011;46995;55.740;37.402;2023-02-07T04:38:10;11.63;;;7.22;;
61108;SDS011;46995;55.740;37.402;2023-02-07T04:40:37;19.05;;;9.38;;
61108;SDS011;46995;55.740;37.402;2023-02-07T04:43:03;15.57;;;7.60;;
61108;SDS011;46995;55.740;37.402;2023-02-07T04:45:29;14.15;;;7.00;;
61108;SDS011;46995;55.740;37.402;2023-02-07T04:47:55;11.90;;;7.07;;
61108;SDS011;46995;55.740;37.402;2023-02-07T04:50:21;15.52;;;8.02;;
61108;SDS011;46995;55.740;37.402;2023-02-07T04:52:46;15.93;;;7.57;;
61108;SDS011;46995;55.740;37.402;2023-02-07T04:55:13;14.63;;;8.15;;
61108;SDS011;46995;55.740;37.402;2023-02-07T04:57:38;14.70;;;7.78;;
61108;SDS011;46995;55.740;37.402;2023-02-07T05:00:06;12.82;;;8.35;;
61108;SDS011;46995;55.740;37.402;2023-02-07T05:02:32;13.18;;;7.43;;
61108;SDS011;46995;55.740;37.402;2023-02-07T05:04:58;16.77;;;8.27;;
61108;SDS011;46995;55.740;37.402;2023-02-07T05:07:24;13.48;;;7.43;;
61108;SDS011;46995;55.740;37.402;2023-02-07T05:09:49;15.05;;;7.68;;
61108;SDS011;46995;55.740;37.402;2023-02-07T05:12:15;15.00;;;8.07;;
61108;SDS011;46995;55.740;37.402;2023-02-07T05:14:41;14.80;;;8.02;;
61108;SDS011;46995;55.740;37.402;2023-02-07T05:17:07;14.15;;;8.18;;
61108;SDS011;46995;55.740;37.402;2023-02-07T05:19:33;16.17;;;8.70;;
61108;SDS011;46995;55.740;37.402;2023-02-07T05:21:58;14.70;;;7.85;;
61108;SDS011;46995;55.740;37.402;2023-02-07T05:24:24;15.00;;;8.13;;
61108;SDS011;46995;55.740;37.402;2023-02-07T05:26:53;16.70;;;9.57;;
61108;SDS011;46995;55.740;37.402;2023-02-07T05:29:19;15.73;;;8.45;;
61108;SDS011;46995;55.740;37.402;2023-02-07T05:31:45;17.58;;;8.85;;
61108;SDS011;46995;55.740;37.402;2023-02-07T05:34:30;17.67;;;8.40;;
61108;SDS011;46995;55.740;37.402;2023-02-07T05:36:55;15.88;;;8.73;;
61108;SDS011;46995;55.740;37.402;2023-02-07T05:39:21;16.13;;;8.48;;
61108;SDS011;46995;55.740;37.402;2023-02-07T05:41:47;13.43;;;7.57;;
61108;SDS011;46995;55.740;37.402;2023-02-07T05:44:13;13.27;;;7.18;;
61108;SDS011;46995;55.740;37.402;2023-02-07T05:46:39;16.33;;;7.32;;
61108;SDS011;46995;55.740;37.402;2023-02-07T05:49:05;14.40;;;8.25;;
61108;SDS011;46995;55.740;37.402;2023-02-07T05:51:30;10.82;;;6.82;;
61108;SDS011;46995;55.740;37.402;2023-02-07T05:53:56;16.05;;;8.48;;
61108;SDS011;46995;55.740;37.402;2023-02-07T05:56:25;12.52;;;7.43;;
61108;SDS011;46995;55.740;37.402;2023-02-07T05:58:51;12.35;;;6.63;;
61108;SDS011;46995;55.740;37.402;2023-02-07T06:01:19;14.80;;;8.05;;
61108;SDS011;46995;55.740;37.402;2023-02-07T06:03:45;14.52;;;7.38;;
61108;SDS011;46995;55.740;37.402;2023-02-07T06:06:10;25.40;;;7.63;;
61108;SDS011;46995;55.740;37.402;2023-02-07T06:08:36;13.05;;;7.05;;
61108;SDS011;46995;55.740;37.402;2023-02-07T06:11:02;13.23;;;7.38;;
61108;SDS011;46995;55.740;37.402;2023-02-07T06:13:28;15.70;;;8.13;;
61108;SDS011;46995;55.740;37.402;2023-02-07T06:15:57;12.93;;;7.43;;
61108;SDS011;46995;55.740;37.402;2023-02-07T06:18:23;14.02;;;6.68;;
61108;SDS011;46995;55.740;37.402;2023-02-07T06:20:50;13.77;;;7.15;;
61108;SDS011;46995;55.740;37.402;2023-02-07T06:23:17;14.18;;;7.10;;
61108;SDS011;46995;55.740;37.402;2023-02-07T06:25:45;15.23;;;7.07;;
61108;SDS011;46995;55.740;37.402;2023-02-07T06:28:10;11.98;;;7.50;;
61108;SDS011;46995;55.740;37.402;2023-02-07T06:30:36;14.55;;;7.43;;
61108;SDS011;46995;55.740;37.402;2023-02-07T06:33:02;14.18;;;8.20;;
61108;SDS011;46995;55.740;37.402;2023-02-07T06:35:29;13.83;;;7.63;;
61108;SDS011;46995;55.740;37.402;2023-02-07T06:37:55;11.85;;;6.75;;
61108;SDS011;46995;55.740;37.402;2023-02-07T06:40:20;12.77;;;7.15;;
61108;SDS011;46995;55.740;37.402;2023-02-07T06:42:46;14.10;;;7.20;;
61108;SDS011;46995;55.740;37.402;2023-02-07T06:45:12;11.25;;;6.32;;
61108;SDS011;46995;55.740;37.402;2023-02-07T06:47:39;21.23;;;7.50;;
61108;SDS011;46995;55.740;37.402;2023-02-07T06:50:05;12.15;;;7.70;;
61108;SDS011;46995;55.740;37.402;2023-02-07T06:52:31;15.02;;;7.13;;
61108;SDS011;46995;55.740;37.402;2023-02-07T06:54:57;12.32;;;6.95;;
61108;SDS011;46995;55.740;37.402;2023-02-07T06:57:22;13.48;;;7.28;;
61108;SDS011;46995;55.740;37.402;2023-02-07T06:59:48;12.70;;;6.78;;
61108;SDS011;46995;55.740;37.402;2023-02-07T07:02:14;13.40;;;8.18;;
61108;SDS011;46995;55.740;37.402;2023-02-07T07:04:41;14.27;;;7.43;;
61108;SDS011;46995;55.740;37.402;2023-02-07T07:07:07;13.15;;;7.10;;
61108;SDS011;46995;55.740;37.402;2023-02-07T07:09:33;11.75;;;6.70;;
61108;SDS011;46995;55.740;37.402;2023-02-07T07:11:59;12.82;;;6.68;;
61108;SDS011;46995;55.740;37.402;2023-02-07T07:14:25;16.88;;;6.88;;
61108;SDS011;46995;55.740;37.402;2023-02-07T07:16:52;17.08;;;7.53;;
61108;SDS011;46995;55.740;37.402;2023-02-07T07:19:18;11.57;;;6.70;;
61108;SDS011;46995;55.740;37.402;2023-02-07T07:21:43;12.73;;;6.72;;
61108;SDS011;46995;55.740;37.402;2023-02-07T07:24:09;11.35;;;6.55;;
61108;SDS011;46995;55.740;37.402;2023-02-07T07:26:35;12.15;;;6.82;;
61108;SDS011;46995;55.740;37.402;2023-02-07T07:29:02;13.45;;;6.57;;
61108;SDS011;46995;55.740;37.402;2023-02-07T07:31:31;14.77;;;7.20;;
61108;SDS011;46995;55.740;37.402;2023-02-07T07:34:00;14.23;;;5.95;;
61108;SDS011;46995;55.740;37.402;2023-02-07T07:36:26;12.23;;;7.25;;
61108;SDS011;46995;55.740;37.402;2023-02-07T07:38:53;14.68;;;7.68;;
61108;SDS011;46995;55.740;37.402;2023-02-07T07:41:19;13.57;;;7.18;;
61108;SDS011;46995;55.740;37.402;2023-02-07T07:43:44;13.15;;;6.32;;
61108;SDS011;46995;55.740;37.402;2023-02-07T07:46:10;13.90;;;7.22;;
61108;SDS011;46995;55.740;37.402;2023-02-07T07:48:36;16.88;;;7.60;;
61108;SDS011;46995;55.740;37.402;2023-02-07T07:51:02;12.88;;;6.50;;
61108;SDS011;46995;55.740;37.402;2023-02-07T07:53:28;11.82;;;6.40;;
61108;SDS011;46995;55.740;37.402;2023-02-07T07:55:54;15.85;;;8.18;;
61108;SDS011;46995;55.740;37.402;2023-02-07T07:58:21;13.95;;;7.00;;
61108;SDS011;46995;55.740;37.402;2023-02-07T08:00:54;13.18;;;7.40;;
61108;SDS011;46995;55.740;37.402;2023-02-07T08:03:20;12.52;;;7.22;;
61108;SDS011;46995;55.740;37.402;2023-02-07T08:05:46;13.02;;;7.35;;
61108;SDS011;46995;55.740;37.402;2023-02-07T08:10:39;14.45;;;6.05;;
61108;SDS011;46995;55.740;37.402;2023-02-07T08:13:05;12.32;;;6.97;;
61108;SDS011;46995;55.740;37.402;2023-02-07T08:15:33;13.43;;;6.82;;
61108;SDS011;46995;55.740;37.402;2023-02-07T08:17:59;15.25;;;7.00;;
61108;SDS011;46995;55.740;37.402;2023-02-07T08:20:25;12.32;;;6.60;;
61108;SDS011;46995;55.740;37.402;2023-02-07T08:22:54;17.20;;;7.22;;
61108;SDS011;46995;55.740;37.402;2023-02-07T08:25:21;11.82;;;7.13;;
61108;SDS011;46995;55.740;37.402;2023-02-07T08:27:48;15.93;;;7.60;;
61108;SDS011;46995;55.740;37.402;2023-02-07T08:30:14;14.35;;;8.02;;
61108;SDS011;46995;55.740;37.402;2023-02-07T08:32:43;13.05;;;6.57;;
61108;SDS011;46995;55.740;37.402;2023-02-07T08:35:09;11.25;;;6.63;;
61108;SDS011;46995;55.740;37.402;2023-02-07T08:37:36;14.07;;;7.20;;
61108;SDS011;46995;55.740;37.402;2023-02-07T08:40:05;11.27;;;7.15;;
61108;SDS011;46995;55.740;37.402;2023-02-07T08:42:31;10.23;;;5.78;;
61108;SDS011;46995;55.740;37.402;2023-02-07T08:44:58;11.90;;;5.93;;
61108;SDS011;46995;55.740;37.402;2023-02-07T08:47:26;11.18;;;5.68;;
61108;SDS011;46995;55.740;37.402;2023-02-07T08:49:51;14.68;;;6.95;;
61108;SDS011;46995;55.740;37.402;2023-02-07T08:52:18;12.70;;;6.47;;
61108;SDS011;46995;55.740;37.402;2023-02-07T08:54:44;12.55;;;5.93;;
61108;SDS011;46995;55.740;37.402;2023-02-07T08:57:10;10.60;;;5.82;;
61108;SDS011;46995;55.740;37.402;2023-02-07T08:59:36;12.45;;;6.85;;
61108;SDS011;46995;55.740;37.402;2023-02-07T09:02:03;15.73;;;7.47;;
61108;SDS011;46995;55.740;37.402;2023-02-07T09:04:29;21.95;;;11.27;;
61108;SDS011;46995;55.740;37.402;2023-02-07T09:06:55;11.65;;;5.80;;
61108;SDS011;46995;55.740;37.402;2023-02-07T09:09:21;12.82;;;6.50;;
61108;SDS011;46995;55.740;37.402;2023-02-07T09:11:46;11.10;;;6.40;;
61108;SDS011;46995;55.740;37.402;2023-02-07T09:14:12;14.32;;;7.05;;
61108;SDS011;46995;55.740;37.402;2023-02-07T09:16:38;14.98;;;7.13;;
61108;SDS011;46995;55.740;37.402;2023-02-07T09:19:07;14.68;;;7.00;;
61108;SDS011;46995;55.740;37.402;2023-02-07T09:21:36;12.52;;;6.45;;
61108;SDS011;46995;55.740;37.402;2023-02-07T09:24:16;13.85;;;6.50;;
61108;SDS011;46995;55.740;37.402;2023-02-07T09:26:53;14.30;;;6.20;;
61108;SDS011;46995;55.740;37.402;2023-02-07T09:29:19;15.90;;;7.05;;
61108;SDS011;46995;55.740;37.402;2023-02-07T09:31:48;16.20;;;7.32;;
61108;SDS011;46995;55.740;37.402;2023-02-07T09:34:19;12.52;;;6.30;;
61108;SDS011;46995;55.740;37.402;2023-02-07T09:40:23;15.60;;;7.15;;
61108;SDS011;46995;55.740;37.402;2023-02-07T09:43:28;13.15;;;6.60;;
61108;SDS011;46995;55.740;37.402;2023-02-07T09:46:30;19.92;;;6.68;;
61108;SDS011;46995;55.740;37.402;2023-02-07T09:49:26;13.65;;;7.15;;
61108;SDS011;46995;55.740;37.402;2023-02-07T09:52:12;11.63;;;6.15;;
61108;SDS011;46995;55.740;37.402;2023-02-07T09:54:46;13.23;;;6.53;;
61108;SDS011;46995;55.740;37.402;2023-02-07T09:57:19;12.27;;;6.75;;
61108;SDS011;46995;55.740;37.402;2023-02-07T09:59:59;11.90;;;6.03;;
61108;SDS011;46995;55.740;37.402;2023-02-07T10:02:36;12.30;;;6.43;;
61108;SDS011;46995;55.740;37.402;2023-02-07T10:05:13;17.23;;;6.57;;
61108;SDS011;46995;55.740;37.402;2023-02-07T10:07:50;11.13;;;6.65;;
61108;SDS011;46995;55.740;37.402;2023-02-07T10:10:17;13.38;;;6.53;;
61108;SDS011;46995;55.740;37.402;2023-02-07T10:26:53;11.20;;;6.20;;
61108;SDS011;46995;55.740;37.402;2023-02-07T10:31:57;10.95;;;5.95;;
61108;SDS011;46995;55.740;37.402;2023-02-07T10:34:30;12.27;;;5.57;;
61108;SDS011;46995;55.740;37.402;2023-02-07T10:37:00;13.18;;;6.28;;
61108;SDS011;46995;55.740;37.402;2023-02-07T10:39:38;13.30;;;6.68;;
61108;SDS011;46995;55.740;37.402;2023-02-07T10:42:12;14.73;;;6.32;;
61108;SDS011;46995;55.740;37.402;2023-02-07T10:44:40;17.00;;;7.32;;
61108;SDS011;46995;55.740;37.402;2023-02-07T10:47:08;10.65;;;6.32;;
61108;SDS011;46995;55.740;37.402;2023-02-07T10:49:39;11.07;;;6.10;;
61108;SDS011;46995;55.740;37.402;2023-02-07T10:54:58;16.23;;;7.18;;
61108;SDS011;46995;55.740;37.402;2023-02-07T10:57:26;14.88;;;6.45;;
61108;SDS011;46995;55.740;37.402;2023-02-07T11:02:48;10.85;;;6.28;;
61108;SDS011;46995;55.740;37.402;2023-02-07T11:07:55;13.63;;;6.07;;
61108;SDS011;46995;55.740;37.402;2023-02-07T11:10:26;13.70;;;7.15;;
61108;SDS011;46995;55.740;37.402;2023-02-07T11:13:03;16.33;;;7.07;;
61108;SDS011;46995;55.740;37.402;2023-02-07T11:15:36;12.70;;;5.95;;
61108;SDS011;46995;55.740;37.402;2023-02-07T11:18:59;10.50;;;5.63;;
61108;SDS011;46995;55.740;37.402;2023-02-07T11:21:24;11.77;;;6.15;;
61108;SDS011;46995;55.740;37.402;2023-02-07T11:29:17;15.50;;;6.63;;
61108;SDS011;46995;55.740;37.402;2023-02-07T11:31:45;16.15;;;6.68;;
61108;SDS011;46995;55.740;37.402;2023-02-07T11:34:25;13.23;;;6.18;;
61108;SDS011;46995;55.740;37.402;2023-02-07T11:37:28;13.50;;;6.50;;
61108;SDS011;46995;55.740;37.402;2023-02-07T11:39:54;13.80;;;6.50;;
61108;SDS011;46995;55.740;37.402;2023-02-07T11:42:40;16.73;;;6.53;;
61108;SDS011;46995;55.740;37.402;2023-02-07T11:45:11;12.40;;;6.38;;
61108;SDS011;46995;55.740;37.402;2023-02-07T11:47:40;12.85;;;6.90;;
61108;SDS011;46995;55.740;37.402;2023-02-07T11:50:52;11.95;;;6.38;;
61108;SDS011;46995;55.740;37.402;2023-02-07T11:53:06;14.10;;;6.47;;
61108;SDS011;46995;55.740;37.402;2023-02-07T11:55:51;12.90;;;6.45;;
61108;SDS011;46995;55.740;37.402;2023-02-07T11:59:06;11.93;;;6.13;;
61108;SDS011;46995;55.740;37.402;2023-02-07T12:01:42;16.45;;;5.85;;
61108;SDS011;46995;55.740;37.402;2023-02-07T12:04:15;14.02;;;6.18;;
61108;SDS011;46995;55.740;37.402;2023-02-07T12:06:46;13.32;;;6.80;;
61108;SDS011;46995;55.740;37.402;2023-02-07T12:11:57;12.70;;;6.40;;
61108;SDS011;46995;55.740;37.402;2023-02-07T12:14:29;18.05;;;6.85;;
61108;SDS011;46995;55.740;37.402;2023-02-07T12:17:02;13.15;;;6.40;;
61108;SDS011;46995;55.740;37.402;2023-02-07T12:19:34;16.88;;;7.43;;
61108;SDS011;46995;55.740;37.402;2023-02-07T12:25:20;11.52;;;5.88;;
61108;SDS011;46995;55.740;37.402;2023-02-07T12:28:03;12.68;;;6.03;;
61108;SDS011;46995;55.740;37.402;2023-02-07T12:30:42;13.27;;;6.28;;
61108;SDS011;46995;55.740;37.402;2023-02-07T12:38:37;12.52;;;6.32;;
61108;SDS011;46995;55.740;37.402;2023-02-07T12:41:10;10.85;;;6.35;;
61108;SDS011;46995;55.740;37.402;2023-02-07T12:43:47;14.40;;;6.57;;
61108;SDS011;46995;55.740;37.402;2023-02-07T12:49:50;15.93;;;7.07;;
61108;SDS011;46995;55.740;37.402;2023-02-07T12:58:07;16.83;;;6.47;;
61108;SDS011;46995;55.740;37.402;2023-02-07T13:03:35;13.50;;;6.20;;
61108;SDS011;46995;55.740;37.402;2023-02-07T13:22:57;12.43;;;6.32;;
61108;SDS011;46995;55.740;37.402;2023-02-07T13:25:28;12.07;;;5.70;;
61108;SDS011;46995;55.740;37.402;2023-02-07T13:27:59;13.40;;;6.13;;
61108;SDS011;46995;55.740;37.402;2023-02-07T13:30:30;12.20;;;5.75;;
61108;SDS011;46995;55.740;37.402;2023-02-07T13:33:03;13.13;;;6.82;;
61108;SDS011;46995;55.740;37.402;2023-02-07T13:35:51;11.43;;;5.57;;
61108;SDS011;46995;55.740;37.402;2023-02-07T13:46:18;12.65;;;6.55;;
61108;SDS011;46995;55.740;37.402;2023-02-07T13:49:27;15.18;;;6.40;;
61108;SDS011;46995;55.740;37.402;2023-02-07T13:57:50;13.95;;;6.55;;
61108;SDS011;46995;55.740;37.402;2023-02-07T14:00:57;11.60;;;6.03;;
61108;SDS011;46995;55.740;37.402;2023-02-07T14:03:33;12.07;;;6.15;;
61108;SDS011;46995;55.740;37.402;2023-02-07T14:06:12;13.43;;;5.97;;
61108;SDS011;46995;55.740;37.402;2023-02-07T14:08:42;12.98;;;6.20;;
61108;SDS011;46995;55.740;37.402;2023-02-07T14:11:25;13.20;;;6.22;;
61108;SDS011;46995;55.740;37.402;2023-02-07T14:14:24;13.35;;;6.78;;
61108;SDS011;46995;55.740;37.402;2023-02-07T14:16:56;13.07;;;6.65;;
61108;SDS011;46995;55.740;37.402;2023-02-07T14:22:15;11.43;;;6.13;;
61108;SDS011;46995;55.740;37.402;2023-02-07T14:27:32;11.75;;;6.70;;
61108;SDS011;46995;55.740;37.402;2023-02-07T14:35:31;12.40;;;6.10;;
61108;SDS011;46995;55.740;37.402;2023-02-07T14:38:07;15.25;;;7.05;;
61108;SDS011;46995;55.740;37.402;2023-02-07T14:45:40;14.80;;;7.00;;
61108;SDS011;46995;55.740;37.402;2023-02-07T14:51:10;14.13;;;6.93;;
61108;SDS011;46995;55.740;37.402;2023-02-07T14:53:40;14.10;;;6.50;;
61108;SDS011;46995;55.740;37.402;2023-02-07T14:59:03;13.10;;;6.32;;
61108;SDS011;46995;55.740;37.402;2023-02-07T15:01:30;14.35;;;6.78;;
61108;SDS011;46995;55.740;37.402;2023-02-07T15:04:03;16.10;;;7.85;;
61108;SDS011;46995;55.740;37.402;2023-02-07T15:06:41;14.98;;;6.88;;
61108;SDS011;46995;55.740;37.402;2023-02-07T15:09:16;17.85;;;7.45;;
61108;SDS011;46995;55.740;37.402;2023-02-07T15:11:48;13.25;;;6.45;;
61108;SDS011;46995;55.740;37.402;2023-02-07T15:14:18;15.77;;;7.20;;
61108;SDS011;46995;55.740;37.402;2023-02-07T15:16:47;13.68;;;6.75;;
61108;SDS011;46995;55.740;37.402;2023-02-07T15:21:43;16.60;;;8.82;;
61108;SDS011;46995;55.740;37.402;2023-02-07T15:26:42;16.95;;;8.07;;
61108;SDS011;46995;55.740;37.402;2023-02-07T15:29:21;12.75;;;7.00;;
61108;SDS011;46995;55.740;37.402;2023-02-07T15:31:49;17.95;;;7.03;;
61108;SDS011;46995;55.740;37.402;2023-02-07T15:34:19;14.45;;;6.97;;
61108;SDS011;46995;55.740;37.402;2023-02-07T15:36:47;15.18;;;6.53;;
61108;SDS011;46995;55.740;37.402;2023-02-07T15:39:16;16.50;;;7.10;;
61108;SDS011;46995;55.740;37.402;2023-02-07T15:41:46;11.32;;;6.55;;
61108;SDS011;46995;55.740;37.402;2023-02-07T15:44:32;15.90;;;7.30;;
61108;SDS011;46995;55.740;37.402;2023-02-07T15:47:11;14.57;;;7.53;;
61108;SDS011;46995;55.740;37.402;2023-02-07T15:49:56;14.15;;;7.13;;
61108;SDS011;46995;55.740;37.402;2023-02-07T15:52:34;13.05;;;6.80;;
61108;SDS011;46995;55.740;37.402;2023-02-07T15:55:12;14.15;;;7.13;;
61108;SDS011;46995;55.740;37.402;2023-02-07T16:00:23;19.50;;;8.10;;
61108;SDS011;46995;55.740;37.402;2023-02-07T16:03:03;18.15;;;7.47;;
61108;SDS011;46995;55.740;37.402;2023-02-07T16:05:34;16.20;;;8.20;;
61108;SDS011;46995;55.740;37.402;2023-02-07T16:08:25;14.75;;;7.90;;
61108;SDS011;46995;55.740;37.402;2023-02-07T16:16:54;16.33;;;8.10;;
61108;SDS011;46995;55.740;37.402;2023-02-07T16:22:07;19.95;;;8.65;;
61108;SDS011;46995;55.740;37.402;2023-02-07T16:24:38;18.88;;;8.63;;
61108;SDS011;46995;55.740;37.402;2023-02-07T16:27:08;18.13;;;9.38;;
61108;SDS011;46995;55.740;37.402;2023-02-07T16:29:42;18.60;;;9.43;;
61108;SDS011;46995;55.740;37.402;2023-02-07T16:32:08;20.10;;;9.60;;
61108;SDS011;46995;55.740;37.402;2023-02-07T16:34:39;18.95;;;8.55;;
61108;SDS011;46995;55.740;37.402;2023-02-07T16:37:06;17.92;;;8.40;;
61108;SDS011;46995;55.740;37.402;2023-02-07T16:39:32;18.15;;;8.07;;
61108;SDS011;46995;55.740;37.402;2023-02-07T16:42:01;16.67;;;8.68;;
61108;SDS011;46995;55.740;37.402;2023-02-07T16:44:32;21.65;;;8.40;;
61108;SDS011;46995;55.740;37.402;2023-02-07T16:46:59;15.73;;;8.73;;
61108;SDS011;46995;55.740;37.402;2023-02-07T16:49:26;18.55;;;8.63;;
61108;SDS011;46995;55.740;37.402;2023-02-07T16:51:54;18.27;;;8.90;;
61108;SDS011;46995;55.740;37.402;2023-02-07T16:54:20;18.25;;;8.60;;
61108;SDS011;46995;55.740;37.402;2023-02-07T16:56:50;19.33;;;8.65;;
61108;SDS011;46995;55.740;37.402;2023-02-07T16:59:19;21.95;;;9.15;;
61108;SDS011;46995;55.740;37.402;2023-02-07T17:01:47;18.20;;;9.27;;
61108;SDS011;46995;55.740;37.402;2023-02-07T17:04:14;18.52;;;8.60;;
61108;SDS011;46995;55.740;37.402;2023-02-07T17:06:40;19.05;;;9.23;;
61108;SDS011;46995;55.740;37.402;2023-02-07T17:09:16;21.77;;;10.07;;
61108;SDS011;46995;55.740;37.402;2023-02-07T17:11:46;20.35;;;8.48;;
61108;SDS011;46995;55.740;37.402;2023-02-07T17:14:12;17.40;;;9.52;;
61108;SDS011;46995;55.740;37.402;2023-02-07T17:16:47;19.80;;;10.38;;
61108;SDS011;46995;55.740;37.402;2023-02-07T17:19:20;26.23;;;9.20;;
61108;SDS011;46995;55.740;37.402;2023-02-07T17:22:03;19.50;;;9.55;;
61108;SDS011;46995;55.740;37.402;2023-02-07T17:24:29;22.15;;;10.55;;
61108;SDS011;46995;55.740;37.402;2023-02-07T17:26:55;19.83;;;8.95;;
61108;SDS011;46995;55.740;37.402;2023-02-07T17:29:23;19.52;;;9.27;;